Terminal Aerodrome Forecast
Issued by NWS Sioux Falls, SD

Home | Current Version | Previous Version | Graphics & Text | Print | Product List | Glossary Off
Versions: 1 2 3 4 5 6 7 8 9 10 11 12 13 14

620
FTUS43 KFSD 200520
TAFHON
TAF
KHON 200520Z 2006/2106 17010KT P6SM SKC WS010/19040KT
     FM201200 16012KT P6SM FEW250
     FM201300 16015G25KT P6SM FEW250
     FM202200 17018G27KT P6SM SCT050=

USA.gov is the U.S. government's official web portal to all federal, state and local government web resources and services.